Latest Weather Observations for kunanyi / Mount Wellington

IDT60801

Issued at 7:32 pm EST Wednesday 23 August 2017 (issued every 30 minutes, with the page automatically refreshed every 10 minutes)

About weather observations | Map of weather stations | Latest weather observations for TAS | Other Formats
Station Details ID: 094087 Name: KUNANYI (MOUNT WELLINGTON PINNACLE) Lat: -42.90 Lon: 147.24 Height: 1260.47 m
Data from the previous 72 hours. | See also: Recent months at kunanyi / Mount Wellington
Date/Time
EST
Temp
°C
App
Temp
°C
Dew
Point
°C
Rel
Hum
%
Delta-T
°C
Wind Press
QNH
hPa
Press
MSL
hPa
Rain since
9am
mm
Dir  Spd
km/h
Gust
km/h
Spd
kts
Gust
kts
23/07:30pm -1.5 -3.7 -1.8 98 0.0 CALM 0 0 0 0 - - 6.2
23/07:00pm -1.1 -10.7 -1.4 98 0.1 SW 39 48 21 26 - - 6.2
23/06:30pm -0.7 -9.1 -1.0 98 0.1 SW 33 44 18 24 - - 6.2
23/06:00pm -0.3 -10.2 -0.6 98 0.1 WSW 41 56 22 30 - - 6.2
23/05:30pm -0.4 -11.2 -0.7 98 0.1 WSW 46 59 25 32 - - 6.2
23/05:00pm 0.0 -10.4 -0.3 98 0.1 WSW 44 52 24 28 - - 6.2
23/04:30pm -0.3 -10.7 -0.6 98 0.1 WSW 44 52 24 28 - - 6.2
23/04:00pm 0.3 -7.4 0.0 98 0.1 WSW 30 39 16 21 - - 6.2
23/03:30pm 0.4 -6.9 0.1 98 0.1 WSW 28 39 15 21 - - 6.2
23/03:00pm 0.3 -6.6 0.0 98 0.1 W 26 39 14 21 - - 6.2
23/02:59pm 0.4 -6.1 0.1 98 0.1 W 24 39 13 21 - - 6.2
23/02:30pm 0.9 -2.7 0.6 98 0.1 W 9 15 5 8 - - 6.2
23/02:00pm 0.3 -3.4 0.0 98 0.1 WSW 9 20 5 11 - - 6.2
23/01:30pm 0.0 -5.3 -0.3 98 0.1 WSW 17 22 9 12 - - 5.6
23/01:00pm 0.1 -4.4 -0.2 98 0.1 SW 13 17 7 9 - - 5.4
23/12:30pm 0.0 -4.9 -0.3 98 0.1 SW 15 17 8 9 - - 4.2
23/12:00pm -0.1 -4.2 -0.4 98 0.1 SW 11 15 6 8 - - 2.8
23/11:30am -0.1 -2.1 -0.4 98 0.1 CALM 0 0 0 0 - - 1.8
23/11:00am -0.1 -2.1 -0.4 98 0.1 CALM 0 0 0 0 - - 1.2
23/10:30am 0.1 -1.9 -0.2 98 0.1 CALM 0 0 0 0 - - 1.0
23/10:00am 0.0 -2.0 -0.3 98 0.1 CALM 0 4 0 2 - - 0.8
23/09:30am 0.4 -2.7 0.3 99 0.0 NE 6 9 3 5 - - 0.6
23/09:00am 0.6 -1.7 0.5 99 0.0 NE 2 6 1 3 - - 3.2
23/08:30am 0.6 -1.3 0.5 99 0.0 CALM 0 4 0 2 - - 2.8
23/08:00am 0.6 -1.3 0.5 99 0.0 CALM 0 0 0 0 - - 2.8
23/07:30am 0.7 -1.2 0.6 99 0.0 CALM 0 0 0 0 - - 2.0
23/07:00am 0.6 -1.3 0.5 99 0.0 CALM 0 0 0 0 - - 1.8
23/06:30am 0.3 -1.7 0.0 98 0.1 CALM 0 0 0 0 - - 1.6
23/06:00am 0.4 -1.6 0.1 98 0.1 CALM 0 0 0 0 - - 1.4
23/05:30am 0.3 -1.7 0.0 98 0.1 CALM 0 0 0 0 - - 1.4
23/05:00am 0.5 -1.4 0.4 99 0.0 CALM 0 4 0 2 - - 1.4
23/04:30am 0.6 -2.6 0.5 99 0.0 WSW 7 11 4 6 - - 1.4
23/04:00am 0.6 -3.8 0.5 99 0.0 WSW 13 17 7 9 - - 1.4
23/03:30am 0.9 -3.1 0.8 99 0.0 WSW 11 20 6 11 - - 1.4
23/03:00am 1.1 -4.0 1.0 99 0.0 WSW 17 22 9 12 - - 1.2
23/02:30am 1.4 -4.2 1.3 99 0.0 WSW 20 32 11 17 - - 1.2
23/02:00am 1.3 -5.1 1.2 99 0.0 W 24 33 13 18 - - 1.0
23/01:30am 1.8 -3.7 1.7 99 0.0 W 20 28 11 15 - - 0.6
23/01:00am 1.7 -2.9 1.6 99 0.0 WNW 15 20 8 11 - - 0.6
23/12:30am 1.5 -3.9 1.2 98 0.1 W 19 26 10 14 - - 0.4
23/12:02am 1.9 -7.2 1.8 99 0.0 W 39 59 21 32 - - 0.2
23/12:00am 1.9 -8.0 1.8 99 0.0 W 43 59 23 32 - - 0.2
 
Date/Time
EST
Temp
°C
App
Temp
°C
Dew
Point
°C
Rel
Hum
%
Delta-T
°C
Wind Press
QNH
hPa
Press
MSL
hPa
Rain since
9am
mm
Dir  Spd
km/h
Gust
km/h
Spd
kts
Gust
kts
22/11:30pm 1.8 -8.1 1.5 98 0.1 WNW 43 57 23 31 - - 0.0
22/11:00pm 1.6 -8.9 1.3 98 0.1 WNW 46 61 25 33 - - 0.0
22/10:30pm 1.7 -8.8 1.4 98 0.1 WNW 46 59 25 32 - - 0.0
22/10:00pm 1.6 -8.4 1.3 98 0.1 WNW 43 54 23 29 - - 0.0
22/09:48pm 1.6 -7.6 1.3 98 0.1 WNW 39 59 21 32 - - 0.0
22/09:30pm 1.5 -7.7 1.2 98 0.1 WNW 39 54 21 29 - - 0.0
22/09:00pm 1.5 -9.4 1.2 98 0.1 WNW 48 57 26 31 - - 0.0
22/08:30pm 1.6 -8.9 1.3 98 0.1 WNW 46 57 25 31 - - 0.0
22/08:00pm 1.6 -8.4 1.3 98 0.1 NW 43 54 23 29 - - 0.0
22/07:30pm 1.6 -8.9 1.2 97 0.2 NW 46 61 25 33 - - 0.0
22/07:00pm 1.8 -8.2 1.1 95 0.3 NW 43 56 23 30 - - 0.0
22/06:30pm 2.0 -8.2 0.8 92 0.5 NW 44 57 24 31 - - 0.0
22/06:04pm 2.1 -6.8 0.9 92 0.5 NW 37 56 20 30 - - 0.0
22/06:00pm 2.1 -6.8 0.9 92 0.5 NW 37 50 20 27 - - 0.0
22/05:30pm 2.4 -7.2 1.1 91 0.5 NW 41 56 22 30 - - 0.0
22/05:00pm 2.6 -5.9 1.1 90 0.6 NW 35 44 19 24 - - 0.0
22/04:30pm 2.8 -6.1 0.9 87 0.8 WNW 37 50 20 27 - - 0.0
22/04:00pm 2.9 -6.7 1.4 90 0.6 WNW 41 54 22 29 - - 0.0
22/03:30pm 2.7 -6.9 1.2 90 0.6 WNW 41 52 22 28 - - 0.0
22/03:00pm 2.9 -7.1 1.0 87 0.8 WNW 43 54 23 29 - - 0.0
22/02:30pm 2.9 -7.3 0.8 86 0.9 WNW 44 56 24 30 - - 0.0
22/02:00pm 2.5 -9.3 0.2 85 0.9 W 52 67 28 36 - - 0.0
22/01:30pm 1.8 -8.8 0.9 94 0.4 W 46 70 25 38 - - 0.0
22/01:27pm 1.9 -9.1 1.0 94 0.4 W 48 70 26 38 - - 0.0
22/01:00pm 1.9 -10.2 0.9 93 0.4 W 54 65 29 35 - - 0.0
22/12:30pm 1.2 -10.6 0.3 94 0.4 W 52 69 28 37 - - 0.0
22/12:00pm 0.8 -10.3 0.2 96 0.2 WNW 48 59 26 32 - - 0.0
22/11:30am 0.4 -11.5 -0.2 96 0.2 W 52 67 28 36 - - 0.0
22/11:00am 0.1 -11.8 -0.5 96 0.2 W 52 65 28 35 - - 0.0
22/10:30am 0.1 -11.4 -0.2 98 0.1 W 50 61 27 33 - - 0.0
22/10:00am 0.0 -10.2 -0.3 98 0.1 WNW 43 54 23 29 - - 0.0
22/09:30am 0.0 -11.5 -0.4 97 0.2 W 50 63 27 34 - - 0.0
22/09:00am 0.0 -12.7 -0.6 96 0.2 W 56 72 30 39 - - 0.2
22/08:41am -0.1 -11.7 -0.7 96 0.2 W 50 70 27 38 - - 0.2
22/08:30am -0.2 -12.2 -0.8 96 0.2 W 52 67 28 36 - - 0.2
22/08:00am -0.3 -12.6 -0.7 97 0.1 W 54 65 29 35 - - 0.0
22/07:30am -0.4 -10.9 -1.0 96 0.2 WNW 44 65 24 35 - - 0.0
22/07:05am -0.7 -12.4 -1.3 96 0.2 W 50 69 27 37 - - 0.0
22/07:00am -0.6 -13.4 -1.2 96 0.2 W 56 70 30 38 - - 0.0
22/06:30am -0.8 -12.9 -1.4 96 0.2 W 52 65 28 35 - - 0.0
22/06:00am -1.0 -12.3 -1.6 96 0.2 WNW 48 70 26 38 - - 0.0
22/05:42am -1.1 -5.0 -1.5 97 0.1 W 9 65 5 35 - - 0.0
22/05:30am -1.7 -4.0 -2.1 97 0.1 CALM 0 0 0 0 - - 0.0
22/05:00am -1.4 -3.6 -1.8 97 0.1 CALM 0 0 0 0 - - 0.0
22/04:30am -1.6 -3.9 -2.0 97 0.1 CALM 0 0 0 0 - - 0.0
22/04:00am -1.7 -4.0 -2.1 97 0.1 CALM 0 0 0 0 - - 0.0
22/03:30am -1.7 -4.0 -2.1 97 0.1 CALM 0 0 0 0 - - 0.0
22/03:00am -2.1 -7.7 -2.6 96 0.1 - 17 32 9 17 - - 0.0
22/02:30am -2.1 -11.5 -2.6 96 0.1 WNW 37 44 20 24 - - 0.0
22/02:00am -1.6 -10.9 -2.2 96 0.1 WNW 37 44 20 24 - - 0.0
22/01:30am -1.5 -10.0 -2.1 96 0.1 NW 33 43 18 23 - - 0.0
22/01:00am -1.7 -10.1 -2.1 97 0.1 WNW 32 39 17 21 - - 0.0
22/12:30am -1.5 -9.8 -1.9 97 0.1 WNW 32 35 17 19 - - 0.0
22/12:00am -1.3 -9.2 -1.7 97 0.1 WNW 30 35 16 19 - - 0.0
 
Date/Time
EST
Temp
°C
App
Temp
°C
Dew
Point
°C
Rel
Hum
%
Delta-T
°C
Wind Press
QNH
hPa
Press
MSL
hPa
Rain since
9am
mm
Dir  Spd
km/h
Gust
km/h
Spd
kts
Gust
kts
21/11:30pm -1.1 -8.6 -1.4 98 0.1 WNW 28 32 15 17 - - 0.0
21/11:00pm -0.8 -7.9 -1.1 98 0.1 WNW 26 32 14 17 - - 0.0
21/10:30pm -0.6 -6.9 -0.9 98 0.1 NW 22 26 12 14 - - 0.0
21/10:00pm -0.5 -7.2 -0.8 98 0.1 NW 24 28 13 15 - - 0.0
21/09:30pm -0.5 -7.2 -0.8 98 0.1 NW 24 30 13 16 - - 0.0
21/09:00pm -0.6 -6.9 -0.9 98 0.1 NW 22 28 12 15 - - 0.0
21/08:30pm -0.6 -6.9 -0.9 98 0.1 NW 22 26 12 14 - - 0.0
21/08:00pm -0.8 -6.5 -1.1 98 0.1 WNW 19 26 10 14 - - 0.0
21/07:30pm -0.9 -5.9 -1.2 98 0.1 WNW 15 19 8 10 - - 0.0
21/07:00pm -0.8 -5.0 -1.1 98 0.1 W 11 15 6 8 - - 0.0
21/06:30pm -0.6 -2.7 -0.9 98 0.1 CALM 0 0 0 0 - - 0.0
21/06:00pm -0.3 -2.4 -0.6 98 0.1 CALM 0 0 0 0 - - 0.0
21/05:30pm -0.3 -2.4 -0.6 98 0.1 CALM 0 7 0 4 - - 0.0
21/05:00pm -0.1 -4.2 -0.4 98 0.1 WSW 11 17 6 9 - - 0.0
21/04:30pm 0.0 -2.4 -0.3 98 0.1 W 2 7 1 4 - - 0.0
21/04:00pm -0.1 -2.5 -0.4 98 0.1 W 2 7 1 4 - - 0.0
21/03:30pm -0.1 -2.1 -0.4 98 0.1 CALM 0 7 0 4 - - 0.0
21/03:00pm -0.1 -2.9 -0.4 98 0.1 WSW 4 11 2 6 - - 0.0
21/02:30pm -0.1 -3.9 -0.4 98 0.1 SW 9 15 5 8 - - 0.0
21/02:00pm -0.1 -4.6 -0.4 98 0.1 SW 13 19 7 10 - - 0.0
21/01:30pm -0.1 -2.5 -0.4 98 0.1 WSW 2 9 1 5 - - 0.0
21/01:00pm -0.2 -2.3 -0.5 98 0.1 CALM 0 0 0 0 - - 0.0
21/12:30pm -0.3 -2.4 -0.6 98 0.1 CALM 0 0 0 0 - - 0.0
21/12:00pm -0.5 -2.6 -0.9 97 0.1 CALM 0 0 0 0 - - 0.0
21/11:30am -1.0 -3.2 -1.4 97 0.1 CALM 0 0 0 0 - - 0.0
21/11:00am -1.3 -3.5 -1.7 97 0.1 CALM 0 0 0 0 - - 0.0
21/10:30am -1.6 -3.9 -2.0 97 0.1 CALM 0 0 0 0 - - 0.0
21/10:00am -2.0 -4.3 -2.6 96 0.1 CALM 0 0 0 0 - - 0.0
21/09:30am -2.2 -4.5 -2.7 96 0.1 CALM 0 0 0 0 - - 0.0
21/09:00am -2.5 -4.9 -3.0 96 0.1 CALM 0 0 0 0 - - 0.0
21/08:30am -3.4 -5.9 -4.1 95 0.1 CALM 0 0 0 0 - - 0.0
21/08:00am -3.4 -5.9 -4.1 95 0.1 CALM 0 0 0 0 - - 0.0
21/07:30am -3.4 -5.9 -4.1 95 0.1 CALM 0 0 0 0 - - 0.0
21/07:00am -3.3 -5.8 -4.0 95 0.1 CALM 0 0 0 0 - - 0.0
21/06:30am -3.1 -5.6 -3.8 95 0.1 CALM 0 0 0 0 - - 0.0
21/06:00am -3.1 -5.6 -3.8 95 0.1 CALM 0 0 0 0 - - 0.0
21/05:30am -3.1 -5.6 -3.8 95 0.1 CALM 0 0 0 0 - - 0.0
21/05:00am -2.9 -5.4 -3.6 95 0.1 CALM 0 0 0 0 - - 0.0
21/04:30am -2.8 -5.2 -3.3 96 0.0 CALM 0 0 0 0 - - 0.0
21/04:00am -2.7 -5.1 -3.2 96 0.1 CALM 0 0 0 0 - - 0.0
21/03:30am -2.6 -5.0 -3.1 96 0.1 CALM 0 0 0 0 - - 0.0
21/03:00am -2.4 -4.8 -2.9 96 0.1 CALM 0 0 0 0 - - 0.0
21/02:30am -2.4 -4.8 -2.9 96 0.1 CALM 0 0 0 0 - - 0.0
21/02:00am -2.1 -4.4 -2.6 96 0.1 CALM 0 0 0 0 - - 0.0
21/01:30am -2.2 -4.5 -2.7 96 0.1 CALM 0 0 0 0 - - 0.0
21/01:00am -2.5 -4.9 -3.0 96 0.1 CALM 0 0 0 0 - - 0.0
21/12:30am -2.8 -5.2 -3.3 96 0.0 CALM 0 0 0 0 - - 0.0
21/12:00am -2.4 -4.8 -2.9 96 0.1 CALM 0 0 0 0 - - 0.0
 
Date/Time
EST
Temp
°C
App
Temp
°C
Dew
Point
°C
Rel
Hum
%
Delta-T
°C
Wind Press
QNH
hPa
Press
MSL
hPa
Rain since
9am
mm
Dir  Spd
km/h
Gust
km/h
Spd
kts
Gust
kts
20/11:30pm -2.2 -4.5 -2.6 97 0.0 CALM 0 0 0 0 - - 0.0
20/11:00pm -2.0 -4.3 -2.4 97 0.0 CALM 0 0 0 0 - - 0.0
20/10:30pm -1.5 -3.7 -1.8 98 0.0 CALM 0 0 0 0 - - 0.0
20/10:00pm -1.1 -3.3 -1.4 98 0.1 CALM 0 0 0 0 - - 0.0
20/09:30pm -0.9 -3.1 -1.2 98 0.1 CALM 0 0 0 0 - - 0.0
20/09:00pm -1.2 -3.4 -1.5 98 0.1 CALM 0 0 0 0 - - 0.0
20/08:30pm -1.2 -3.4 -1.5 98 0.1 CALM 0 0 0 0 - - 0.0
20/08:00pm -1.1 -3.3 -1.4 98 0.1 CALM 0 0 0 0 - - 0.0

Other Formats:

Comma delimited format used in spreadsheet applications
http://www.bom.gov.au/fwo/IDT60801/IDT60801.95979.axf

JavaScript Object Notation format (JSON) in row-major order
http://www.bom.gov.au/fwo/IDT60801/IDT60801.95979.json